sensor_id;sensor_type;location;lat;lon;timestamp;P1;durP1;ratioP1;P2;durP2;ratioP2
50367;SDS011;36281;34.132;-118.018;2023-04-15T00:01:57;12.88;;;5.68;;
50367;SDS011;36281;34.132;-118.018;2023-04-15T00:04:27;14.55;;;6.45;;
50367;SDS011;36281;34.132;-118.018;2023-04-15T00:07:00;11.98;;;5.82;;
50367;SDS011;36281;34.132;-118.018;2023-04-15T00:09:29;14.68;;;6.10;;
50367;SDS011;36281;34.132;-118.018;2023-04-15T00:11:58;16.10;;;6.65;;
50367;SDS011;36281;34.132;-118.018;2023-04-15T00:14:28;13.45;;;6.38;;
50367;SDS011;36281;34.132;-118.018;2023-04-15T00:16:58;16.38;;;6.03;;
50367;SDS011;36281;34.132;-118.018;2023-04-15T00:19:28;15.52;;;7.07;;
50367;SDS011;36281;34.132;-118.018;2023-04-15T00:21:57;16.52;;;7.40;;
50367;SDS011;36281;34.132;-118.018;2023-04-15T00:24:28;13.57;;;6.45;;
50367;SDS011;36281;34.132;-118.018;2023-04-15T00:26:58;17.45;;;6.65;;
50367;SDS011;36281;34.132;-118.018;2023-04-15T00:29:27;10.35;;;6.38;;
50367;SDS011;36281;34.132;-118.018;2023-04-15T00:31:57;15.43;;;7.00;;
50367;SDS011;36281;34.132;-118.018;2023-04-15T00:34:26;15.30;;;6.15;;
50367;SDS011;36281;34.132;-118.018;2023-04-15T00:36:55;11.20;;;6.47;;
50367;SDS011;36281;34.132;-118.018;2023-04-15T00:39:26;19.92;;;6.68;;
50367;SDS011;36281;34.132;-118.018;2023-04-15T00:41:55;13.30;;;6.40;;
50367;SDS011;36281;34.132;-118.018;2023-04-15T00:44:25;16.27;;;6.32;;
50367;SDS011;36281;34.132;-118.018;2023-04-15T00:46:54;19.08;;;6.93;;
50367;SDS011;36281;34.132;-118.018;2023-04-15T00:49:24;12.73;;;5.82;;
50367;SDS011;36281;34.132;-118.018;2023-04-15T00:51:55;20.10;;;6.82;;
50367;SDS011;36281;34.132;-118.018;2023-04-15T00:54:26;16.33;;;6.60;;
50367;SDS011;36281;34.132;-118.018;2023-04-15T00:56:55;12.32;;;5.80;;
50367;SDS011;36281;34.132;-118.018;2023-04-15T00:59:24;18.75;;;6.35;;
50367;SDS011;36281;34.132;-118.018;2023-04-15T01:01:53;11.25;;;5.88;;
50367;SDS011;36281;34.132;-118.018;2023-04-15T01:04:24;15.10;;;6.78;;
50367;SDS011;36281;34.132;-118.018;2023-04-15T01:06:53;13.38;;;6.15;;
50367;SDS011;36281;34.132;-118.018;2023-04-15T01:09:22;17.27;;;6.75;;
50367;SDS011;36281;34.132;-118.018;2023-04-15T01:11:53;18.50;;;7.40;;
50367;SDS011;36281;34.132;-118.018;2023-04-15T01:14:23;17.13;;;9.10;;
50367;SDS011;36281;34.132;-118.018;2023-04-15T01:16:53;18.48;;;9.57;;
50367;SDS011;36281;34.132;-118.018;2023-04-15T01:19:22;20.48;;;8.80;;
50367;SDS011;36281;34.132;-118.018;2023-04-15T01:21:51;18.48;;;7.75;;
50367;SDS011;36281;34.132;-118.018;2023-04-15T01:24:20;17.10;;;8.27;;
50367;SDS011;36281;34.132;-118.018;2023-04-15T01:26:53;12.10;;;7.82;;
50367;SDS011;36281;34.132;-118.018;2023-04-15T01:29:22;14.85;;;7.93;;
50367;SDS011;36281;34.132;-118.018;2023-04-15T01:31:51;17.15;;;7.25;;
50367;SDS011;36281;34.132;-118.018;2023-04-15T01:34:25;11.48;;;6.75;;
50367;SDS011;36281;34.132;-118.018;2023-04-15T01:36:54;11.02;;;6.53;;
50367;SDS011;36281;34.132;-118.018;2023-04-15T01:39:23;14.13;;;6.60;;
50367;SDS011;36281;34.132;-118.018;2023-04-15T01:41:54;14.70;;;6.55;;
50367;SDS011;36281;34.132;-118.018;2023-04-15T01:44:23;15.77;;;7.50;;
50367;SDS011;36281;34.132;-118.018;2023-04-15T01:46:53;17.80;;;7.38;;
50367;SDS011;36281;34.132;-118.018;2023-04-15T01:49:22;13.63;;;7.00;;
50367;SDS011;36281;34.132;-118.018;2023-04-15T01:51:51;17.02;;;7.70;;
50367;SDS011;36281;34.132;-118.018;2023-04-15T01:54:20;15.85;;;7.97;;
50367;SDS011;36281;34.132;-118.018;2023-04-15T01:56:49;17.40;;;7.60;;
50367;SDS011;36281;34.132;-118.018;2023-04-15T01:59:20;17.38;;;7.60;;
50367;SDS011;36281;34.132;-118.018;2023-04-15T02:01:49;12.30;;;7.53;;
50367;SDS011;36281;34.132;-118.018;2023-04-15T02:04:19;17.60;;;7.65;;
50367;SDS011;36281;34.132;-118.018;2023-04-15T02:06:48;16.95;;;8.75;;
50367;SDS011;36281;34.132;-118.018;2023-04-15T02:09:17;15.80;;;7.65;;
50367;SDS011;36281;34.132;-118.018;2023-04-15T02:11:46;13.57;;;7.00;;
50367;SDS011;36281;34.132;-118.018;2023-04-15T02:14:15;20.38;;;7.93;;
50367;SDS011;36281;34.132;-118.018;2023-04-15T02:16:46;15.10;;;7.38;;
50367;SDS011;36281;34.132;-118.018;2023-04-15T02:19:15;16.38;;;7.30;;
50367;SDS011;36281;34.132;-118.018;2023-04-15T02:21:44;16.42;;;8.27;;
50367;SDS011;36281;34.132;-118.018;2023-04-15T02:24:13;13.35;;;7.18;;
50367;SDS011;36281;34.132;-118.018;2023-04-15T02:26:43;17.77;;;8.18;;
50367;SDS011;36281;34.132;-118.018;2023-04-15T02:29:13;17.00;;;7.72;;
50367;SDS011;36281;34.132;-118.018;2023-04-15T02:31:42;15.55;;;7.95;;
50367;SDS011;36281;34.132;-118.018;2023-04-15T02:34:13;17.02;;;6.40;;
50367;SDS011;36281;34.132;-118.018;2023-04-15T02:36:43;10.90;;;4.90;;
50367;SDS011;36281;34.132;-118.018;2023-04-15T02:39:14;12.15;;;4.85;;
50367;SDS011;36281;34.132;-118.018;2023-04-15T02:41:45;12.05;;;4.38;;
50367;SDS011;36281;34.132;-118.018;2023-04-15T02:44:18;9.85;;;4.93;;
50367;SDS011;36281;34.132;-118.018;2023-04-15T02:46:48;13.23;;;4.70;;
50367;SDS011;36281;34.132;-118.018;2023-04-15T02:49:20;7.88;;;4.60;;
50367;SDS011;36281;34.132;-118.018;2023-04-15T02:51:49;8.77;;;4.35;;
50367;SDS011;36281;34.132;-118.018;2023-04-15T02:54:19;13.73;;;4.70;;
50367;SDS011;36281;34.132;-118.018;2023-04-15T02:56:49;12.05;;;4.72;;
50367;SDS011;36281;34.132;-118.018;2023-04-15T02:59:21;9.70;;;4.50;;
50367;SDS011;36281;34.132;-118.018;2023-04-15T03:01:50;11.35;;;4.78;;
50367;SDS011;36281;34.132;-118.018;2023-04-15T03:04:22;10.15;;;4.78;;
50367;SDS011;36281;34.132;-118.018;2023-04-15T03:06:51;10.32;;;4.47;;
50367;SDS011;36281;34.132;-118.018;2023-04-15T03:09:20;10.18;;;4.30;;
50367;SDS011;36281;34.132;-118.018;2023-04-15T03:11:49;7.22;;;4.20;;
50367;SDS011;36281;34.132;-118.018;2023-04-15T03:14:20;9.77;;;4.70;;
50367;SDS011;36281;34.132;-118.018;2023-04-15T03:16:49;8.30;;;4.63;;
50367;SDS011;36281;34.132;-118.018;2023-04-15T03:19:18;11.52;;;4.78;;
50367;SDS011;36281;34.132;-118.018;2023-04-15T03:21:49;9.00;;;4.75;;
50367;SDS011;36281;34.132;-118.018;2023-04-15T03:24:19;12.40;;;5.13;;
50367;SDS011;36281;34.132;-118.018;2023-04-15T03:26:48;10.05;;;5.07;;
50367;SDS011;36281;34.132;-118.018;2023-04-15T03:29:17;11.50;;;4.40;;
50367;SDS011;36281;34.132;-118.018;2023-04-15T03:31:46;10.35;;;4.63;;
50367;SDS011;36281;34.132;-118.018;2023-04-15T03:34:15;11.80;;;4.80;;
50367;SDS011;36281;34.132;-118.018;2023-04-15T03:36:45;12.25;;;4.95;;
50367;SDS011;36281;34.132;-118.018;2023-04-15T03:39:14;9.18;;;4.50;;
50367;SDS011;36281;34.132;-118.018;2023-04-15T03:41:43;8.48;;;4.53;;
50367;SDS011;36281;34.132;-118.018;2023-04-15T03:44:13;10.20;;;4.60;;
50367;SDS011;36281;34.132;-118.018;2023-04-15T03:46:42;13.45;;;5.18;;
50367;SDS011;36281;34.132;-118.018;2023-04-15T03:49:12;12.00;;;4.72;;
50367;SDS011;36281;34.132;-118.018;2023-04-15T03:51:41;8.68;;;5.00;;
50367;SDS011;36281;34.132;-118.018;2023-04-15T03:54:12;12.75;;;5.22;;
50367;SDS011;36281;34.132;-118.018;2023-04-15T03:56:41;9.40;;;5.00;;
50367;SDS011;36281;34.132;-118.018;2023-04-15T03:59:10;9.52;;;4.90;;
50367;SDS011;36281;34.132;-118.018;2023-04-15T04:01:39;8.02;;;5.05;;
50367;SDS011;36281;34.132;-118.018;2023-04-15T04:04:09;10.20;;;5.40;;
50367;SDS011;36281;34.132;-118.018;2023-04-15T04:06:38;12.35;;;5.35;;
50367;SDS011;36281;34.132;-118.018;2023-04-15T04:09:07;10.05;;;4.95;;
50367;SDS011;36281;34.132;-118.018;2023-04-15T04:11:38;12.00;;;5.60;;
50367;SDS011;36281;34.132;-118.018;2023-04-15T04:14:07;11.00;;;5.22;;
50367;SDS011;36281;34.132;-118.018;2023-04-15T04:16:36;9.00;;;5.20;;
50367;SDS011;36281;34.132;-118.018;2023-04-15T04:19:05;12.27;;;5.35;;
50367;SDS011;36281;34.132;-118.018;2023-04-15T04:21:34;11.77;;;5.70;;
50367;SDS011;36281;34.132;-118.018;2023-04-15T04:24:03;12.90;;;5.05;;
50367;SDS011;36281;34.132;-118.018;2023-04-15T04:26:33;14.90;;;5.70;;
50367;SDS011;36281;34.132;-118.018;2023-04-15T04:29:03;13.30;;;5.50;;
50367;SDS011;36281;34.132;-118.018;2023-04-15T04:31:33;12.38;;;5.70;;
50367;SDS011;36281;34.132;-118.018;2023-04-15T04:34:02;10.25;;;5.75;;
50367;SDS011;36281;34.132;-118.018;2023-04-15T04:36:31;11.02;;;5.70;;
50367;SDS011;36281;34.132;-118.018;2023-04-15T04:39:00;10.80;;;5.60;;
50367;SDS011;36281;34.132;-118.018;2023-04-15T04:41:29;10.93;;;5.22;;
50367;SDS011;36281;34.132;-118.018;2023-04-15T04:43:59;9.38;;;5.53;;
50367;SDS011;36281;34.132;-118.018;2023-04-15T04:46:29;10.63;;;4.93;;
50367;SDS011;36281;34.132;-118.018;2023-04-15T04:48:58;8.80;;;5.32;;
50367;SDS011;36281;34.132;-118.018;2023-04-15T04:51:28;13.57;;;5.90;;
50367;SDS011;36281;34.132;-118.018;2023-04-15T04:53:57;11.02;;;5.60;;
50367;SDS011;36281;34.132;-118.018;2023-04-15T04:56:29;9.18;;;5.57;;
50367;SDS011;36281;34.132;-118.018;2023-04-15T04:58:58;12.43;;;5.50;;
50367;SDS011;36281;34.132;-118.018;2023-04-15T05:01:29;12.05;;;5.75;;
50367;SDS011;36281;34.132;-118.018;2023-04-15T05:03:59;11.75;;;5.93;;
50367;SDS011;36281;34.132;-118.018;2023-04-15T05:06:28;9.15;;;5.25;;
50367;SDS011;36281;34.132;-118.018;2023-04-15T05:08:57;10.52;;;5.60;;
50367;SDS011;36281;34.132;-118.018;2023-04-15T05:11:28;10.95;;;6.00;;
50367;SDS011;36281;34.132;-118.018;2023-04-15T05:13:57;14.20;;;6.47;;
50367;SDS011;36281;34.132;-118.018;2023-04-15T05:16:30;18.02;;;6.10;;
50367;SDS011;36281;34.132;-118.018;2023-04-15T05:18:59;15.00;;;6.20;;
50367;SDS011;36281;34.132;-118.018;2023-04-15T05:21:29;10.32;;;5.68;;
50367;SDS011;36281;34.132;-118.018;2023-04-15T05:23:58;10.30;;;5.65;;
50367;SDS011;36281;34.132;-118.018;2023-04-15T05:26:27;9.77;;;5.97;;
50367;SDS011;36281;34.132;-118.018;2023-04-15T05:28:56;13.63;;;6.32;;
50367;SDS011;36281;34.132;-118.018;2023-04-15T05:31:25;10.02;;;6.60;;
50367;SDS011;36281;34.132;-118.018;2023-04-15T05:33:56;11.18;;;6.15;;
50367;SDS011;36281;34.132;-118.018;2023-04-15T05:36:25;8.57;;;5.70;;
50367;SDS011;36281;34.132;-118.018;2023-04-15T05:38:55;10.05;;;6.65;;
50367;SDS011;36281;34.132;-118.018;2023-04-15T05:41:24;11.05;;;6.13;;
50367;SDS011;36281;34.132;-118.018;2023-04-15T05:43:53;11.93;;;6.45;;
50367;SDS011;36281;34.132;-118.018;2023-04-15T05:46:22;15.35;;;7.60;;
50367;SDS011;36281;34.132;-118.018;2023-04-15T05:48:51;16.40;;;7.50;;
50367;SDS011;36281;34.132;-118.018;2023-04-15T05:51:25;17.88;;;7.30;;
50367;SDS011;36281;34.132;-118.018;2023-04-15T05:53:55;13.93;;;7.30;;
50367;SDS011;36281;34.132;-118.018;2023-04-15T05:56:24;18.42;;;7.20;;
50367;SDS011;36281;34.132;-118.018;2023-04-15T05:58:53;11.60;;;6.32;;
50367;SDS011;36281;34.132;-118.018;2023-04-15T06:01:23;9.75;;;6.70;;
50367;SDS011;36281;34.132;-118.018;2023-04-15T06:03:52;13.98;;;7.45;;
50367;SDS011;36281;34.132;-118.018;2023-04-15T06:06:22;12.73;;;6.43;;
50367;SDS011;36281;34.132;-118.018;2023-04-15T06:08:53;15.02;;;7.43;;
50367;SDS011;36281;34.132;-118.018;2023-04-15T06:11:22;13.82;;;7.30;;
50367;SDS011;36281;34.132;-118.018;2023-04-15T06:13:51;12.18;;;7.50;;
50367;SDS011;36281;34.132;-118.018;2023-04-15T06:16:20;11.88;;;7.72;;
50367;SDS011;36281;34.132;-118.018;2023-04-15T06:18:50;14.15;;;7.00;;
50367;SDS011;36281;34.132;-118.018;2023-04-15T06:21:19;18.10;;;9.00;;
50367;SDS011;36281;34.132;-118.018;2023-04-15T06:23:48;15.57;;;8.65;;
50367;SDS011;36281;34.132;-118.018;2023-04-15T06:26:18;13.25;;;7.82;;
50367;SDS011;36281;34.132;-118.018;2023-04-15T06:28:48;15.85;;;8.50;;
50367;SDS011;36281;34.132;-118.018;2023-04-15T06:31:17;18.38;;;8.90;;
50367;SDS011;36281;34.132;-118.018;2023-04-15T06:33:46;16.65;;;8.73;;
50367;SDS011;36281;34.132;-118.018;2023-04-15T06:36:15;15.18;;;9.40;;
50367;SDS011;36281;34.132;-118.018;2023-04-15T06:38:44;17.00;;;10.40;;
50367;SDS011;36281;34.132;-118.018;2023-04-15T06:41:13;15.75;;;9.20;;
50367;SDS011;36281;34.132;-118.018;2023-04-15T06:43:44;18.52;;;9.45;;
50367;SDS011;36281;34.132;-118.018;2023-04-15T06:46:13;18.98;;;9.80;;
50367;SDS011;36281;34.132;-118.018;2023-04-15T06:48:43;16.75;;;9.23;;
50367;SDS011;36281;34.132;-118.018;2023-04-15T06:51:12;15.55;;;9.48;;
50367;SDS011;36281;34.132;-118.018;2023-04-15T06:53:41;18.73;;;10.32;;
50367;SDS011;36281;34.132;-118.018;2023-04-15T06:56:10;16.05;;;9.38;;
50367;SDS011;36281;34.132;-118.018;2023-04-15T06:58:39;16.13;;;10.13;;
50367;SDS011;36281;34.132;-118.018;2023-04-15T07:01:10;14.93;;;9.88;;
50367;SDS011;36281;34.132;-118.018;2023-04-15T07:03:40;17.58;;;9.98;;
50367;SDS011;36281;34.132;-118.018;2023-04-15T07:06:10;17.80;;;9.73;;
50367;SDS011;36281;34.132;-118.018;2023-04-15T07:08:39;17.73;;;9.93;;
50367;SDS011;36281;34.132;-118.018;2023-04-15T07:11:09;16.38;;;10.18;;
50367;SDS011;36281;34.132;-118.018;2023-04-15T07:13:39;15.52;;;9.35;;
50367;SDS011;36281;34.132;-118.018;2023-04-15T07:16:08;17.75;;;10.45;;
50367;SDS011;36281;34.132;-118.018;2023-04-15T07:18:38;14.90;;;9.43;;
50367;SDS011;36281;34.132;-118.018;2023-04-15T07:21:07;17.05;;;10.50;;
50367;SDS011;36281;34.132;-118.018;2023-04-15T07:23:36;16.90;;;9.48;;
50367;SDS011;36281;34.132;-118.018;2023-04-15T07:26:07;16.20;;;10.18;;
50367;SDS011;36281;34.132;-118.018;2023-04-15T07:28:36;14.05;;;10.00;;
50367;SDS011;36281;34.132;-118.018;2023-04-15T07:31:05;18.42;;;10.20;;
50367;SDS011;36281;34.132;-118.018;2023-04-15T07:33:36;17.60;;;10.00;;
50367;SDS011;36281;34.132;-118.018;2023-04-15T07:36:05;17.23;;;9.93;;
50367;SDS011;36281;34.132;-118.018;2023-04-15T07:38:34;19.10;;;10.35;;
50367;SDS011;36281;34.132;-118.018;2023-04-15T07:41:03;17.20;;;9.52;;
50367;SDS011;36281;34.132;-118.018;2023-04-15T07:43:32;17.42;;;9.68;;
50367;SDS011;36281;34.132;-118.018;2023-04-15T07:46:02;15.48;;;9.98;;
50367;SDS011;36281;34.132;-118.018;2023-04-15T07:48:32;16.80;;;10.60;;
50367;SDS011;36281;34.132;-118.018;2023-04-15T07:51:05;18.02;;;10.52;;
50367;SDS011;36281;34.132;-118.018;2023-04-15T07:53:35;16.83;;;10.23;;
50367;SDS011;36281;34.132;-118.018;2023-04-15T07:56:05;15.32;;;9.73;;
50367;SDS011;36281;34.132;-118.018;2023-04-15T07:58:34;13.05;;;9.73;;
50367;SDS011;36281;34.132;-118.018;2023-04-15T08:01:03;14.30;;;9.25;;
50367;SDS011;36281;34.132;-118.018;2023-04-15T08:03:33;16.90;;;9.80;;
50367;SDS011;36281;34.132;-118.018;2023-04-15T08:06:03;15.30;;;10.27;;
50367;SDS011;36281;34.132;-118.018;2023-04-15T08:08:34;17.40;;;9.75;;
50367;SDS011;36281;34.132;-118.018;2023-04-15T08:11:04;17.73;;;10.05;;
50367;SDS011;36281;34.132;-118.018;2023-04-15T08:13:33;12.93;;;10.02;;
50367;SDS011;36281;34.132;-118.018;2023-04-15T08:16:12;16.27;;;10.35;;
50367;SDS011;36281;34.132;-118.018;2023-04-15T08:18:43;17.33;;;10.23;;
50367;SDS011;36281;34.132;-118.018;2023-04-15T08:21:13;17.48;;;10.50;;
50367;SDS011;36281;34.132;-118.018;2023-04-15T08:23:43;21.30;;;9.93;;
50367;SDS011;36281;34.132;-118.018;2023-04-15T08:26:13;17.77;;;10.43;;
50367;SDS011;36281;34.132;-118.018;2023-04-15T08:28:43;18.70;;;9.70;;
50367;SDS011;36281;34.132;-118.018;2023-04-15T08:31:13;14.18;;;9.00;;
50367;SDS011;36281;34.132;-118.018;2023-04-15T08:33:43;19.05;;;9.82;;
50367;SDS011;36281;34.132;-118.018;2023-04-15T08:36:14;17.00;;;10.18;;
50367;SDS011;36281;34.132;-118.018;2023-04-15T08:38:44;18.70;;;10.25;;
50367;SDS011;36281;34.132;-118.018;2023-04-15T08:41:16;18.85;;;10.45;;
50367;SDS011;36281;34.132;-118.018;2023-04-15T08:43:51;15.95;;;10.23;;
50367;SDS011;36281;34.132;-118.018;2023-04-15T08:46:21;17.27;;;10.38;;
50367;SDS011;36281;34.132;-118.018;2023-04-15T08:48:50;17.08;;;9.95;;
50367;SDS011;36281;34.132;-118.018;2023-04-15T08:51:25;21.00;;;10.52;;
50367;SDS011;36281;34.132;-118.018;2023-04-15T08:53:54;16.83;;;10.05;;
50367;SDS011;36281;34.132;-118.018;2023-04-15T08:56:24;18.27;;;10.63;;
50367;SDS011;36281;34.132;-118.018;2023-04-15T08:58:55;15.57;;;10.13;;
50367;SDS011;36281;34.132;-118.018;2023-04-15T09:01:24;17.88;;;9.73;;
50367;SDS011;36281;34.132;-118.018;2023-04-15T09:03:53;14.25;;;9.35;;
50367;SDS011;36281;34.132;-118.018;2023-04-15T09:06:26;17.75;;;9.68;;
50367;SDS011;36281;34.132;-118.018;2023-04-15T09:08:55;17.75;;;9.82;;
50367;SDS011;36281;34.132;-118.018;2023-04-15T09:11:24;15.23;;;9.70;;
50367;SDS011;36281;34.132;-118.018;2023-04-15T09:13:53;20.75;;;9.45;;
50367;SDS011;36281;34.132;-118.018;2023-04-15T09:16:24;16.85;;;10.02;;
50367;SDS011;36281;34.132;-118.018;2023-04-15T09:18:53;14.88;;;9.15;;
50367;SDS011;36281;34.132;-118.018;2023-04-15T09:21:23;16.08;;;9.20;;
50367;SDS011;36281;34.132;-118.018;2023-04-15T09:23:57;15.95;;;9.27;;
50367;SDS011;36281;34.132;-118.018;2023-04-15T09:26:31;16.13;;;9.67;;
50367;SDS011;36281;34.132;-118.018;2023-04-15T09:29:04;15.77;;;9.25;;
50367;SDS011;36281;34.132;-118.018;2023-04-15T09:31:34;13.82;;;9.48;;
50367;SDS011;36281;34.132;-118.018;2023-04-15T09:34:04;17.08;;;9.18;;
50367;SDS011;36281;34.132;-118.018;2023-04-15T09:36:38;14.90;;;9.32;;
50367;SDS011;36281;34.132;-118.018;2023-04-15T09:39:22;17.52;;;9.68;;
50367;SDS011;36281;34.132;-118.018;2023-04-15T09:42:04;19.88;;;8.98;;
50367;SDS011;36281;34.132;-118.018;2023-04-15T09:44:34;14.45;;;9.30;;
50367;SDS011;36281;34.132;-118.018;2023-04-15T09:47:03;13.85;;;8.82;;
50367;SDS011;36281;34.132;-118.018;2023-04-15T09:49:33;15.32;;;9.10;;
50367;SDS011;36281;34.132;-118.018;2023-04-15T09:52:02;16.00;;;8.57;;
50367;SDS011;36281;34.132;-118.018;2023-04-15T09:54:35;15.30;;;9.07;;
50367;SDS011;36281;34.132;-118.018;2023-04-15T09:57:05;16.45;;;8.93;;
50367;SDS011;36281;34.132;-118.018;2023-04-15T09:59:36;13.80;;;8.82;;
50367;SDS011;36281;34.132;-118.018;2023-04-15T10:02:05;12.07;;;8.52;;
50367;SDS011;36281;34.132;-118.018;2023-04-15T10:04:35;17.35;;;8.93;;
50367;SDS011;36281;34.132;-118.018;2023-04-15T10:07:08;16.00;;;9.05;;
50367;SDS011;36281;34.132;-118.018;2023-04-15T10:09:39;13.95;;;8.25;;
50367;SDS011;36281;34.132;-118.018;2023-04-15T10:12:08;14.77;;;8.07;;
50367;SDS011;36281;34.132;-118.018;2023-04-15T10:14:38;14.70;;;8.35;;
50367;SDS011;36281;34.132;-118.018;2023-04-15T10:17:10;14.82;;;9.07;;
50367;SDS011;36281;34.132;-118.018;2023-04-15T10:19:39;18.08;;;8.55;;
50367;SDS011;36281;34.132;-118.018;2023-04-15T10:22:09;17.48;;;9.18;;
50367;SDS011;36281;34.132;-118.018;2023-04-15T10:24:40;13.48;;;8.27;;
50367;SDS011;36281;34.132;-118.018;2023-04-15T10:27:11;15.70;;;9.40;;
50367;SDS011;36281;34.132;-118.018;2023-04-15T10:29:41;16.42;;;9.13;;
50367;SDS011;36281;34.132;-118.018;2023-04-15T10:32:11;13.35;;;8.70;;
50367;SDS011;36281;34.132;-118.018;2023-04-15T10:34:41;12.65;;;8.85;;
50367;SDS011;36281;34.132;-118.018;2023-04-15T10:37:10;14.90;;;8.48;;
50367;SDS011;36281;34.132;-118.018;2023-04-15T10:39:42;12.00;;;8.23;;
50367;SDS011;36281;34.132;-118.018;2023-04-15T10:42:11;16.67;;;9.15;;
50367;SDS011;36281;34.132;-118.018;2023-04-15T10:44:44;18.50;;;9.40;;
50367;SDS011;36281;34.132;-118.018;2023-04-15T10:47:19;12.93;;;8.25;;
50367;SDS011;36281;34.132;-118.018;2023-04-15T10:49:50;14.60;;;9.00;;
50367;SDS011;36281;34.132;-118.018;2023-04-15T10:52:22;12.98;;;8.07;;
50367;SDS011;36281;34.132;-118.018;2023-04-15T10:55:02;14.30;;;8.80;;
50367;SDS011;36281;34.132;-118.018;2023-04-15T10:57:40;18.90;;;8.70;;
50367;SDS011;36281;34.132;-118.018;2023-04-15T11:00:11;11.57;;;8.18;;
50367;SDS011;36281;34.132;-118.018;2023-04-15T11:02:41;14.13;;;8.85;;
50367;SDS011;36281;34.132;-118.018;2023-04-15T11:05:12;15.15;;;8.77;;
50367;SDS011;36281;34.132;-118.018;2023-04-15T11:07:49;15.35;;;8.85;;
50367;SDS011;36281;34.132;-118.018;2023-04-15T11:13:21;12.27;;;8.63;;
50367;SDS011;36281;34.132;-118.018;2023-04-15T11:15:57;13.77;;;8.48;;
50367;SDS011;36281;34.132;-118.018;2023-04-15T11:18:29;12.90;;;8.55;;
50367;SDS011;36281;34.132;-118.018;2023-04-15T11:21:00;14.25;;;8.57;;
50367;SDS011;36281;34.132;-118.018;2023-04-15T11:23:31;14.27;;;8.05;;
50367;SDS011;36281;34.132;-118.018;2023-04-15T11:26:04;14.77;;;8.35;;
50367;SDS011;36281;34.132;-118.018;2023-04-15T11:28:36;14.75;;;9.15;;
50367;SDS011;36281;34.132;-118.018;2023-04-15T11:31:08;14.63;;;8.55;;
50367;SDS011;36281;34.132;-118.018;2023-04-15T11:33:45;17.05;;;8.02;;
50367;SDS011;36281;34.132;-118.018;2023-04-15T11:36:23;13.88;;;8.52;;
50367;SDS011;36281;34.132;-118.018;2023-04-15T11:38:54;12.68;;;8.10;;
50367;SDS011;36281;34.132;-118.018;2023-04-15T11:41:26;16.23;;;8.48;;
50367;SDS011;36281;34.132;-118.018;2023-04-15T11:43:55;14.73;;;8.30;;
50367;SDS011;36281;34.132;-118.018;2023-04-15T11:46:28;13.52;;;8.80;;
50367;SDS011;36281;34.132;-118.018;2023-04-15T11:48:58;13.85;;;8.50;;
50367;SDS011;36281;34.132;-118.018;2023-04-15T11:51:31;14.77;;;7.82;;
50367;SDS011;36281;34.132;-118.018;2023-04-15T11:54:01;13.90;;;8.23;;
50367;SDS011;36281;34.132;-118.018;2023-04-15T11:56:32;12.48;;;8.40;;
50367;SDS011;36281;34.132;-118.018;2023-04-15T11:59:02;13.60;;;8.30;;
50367;SDS011;36281;34.132;-118.018;2023-04-15T12:01:31;14.00;;;8.52;;
50367;SDS011;36281;34.132;-118.018;2023-04-15T12:04:01;13.57;;;8.05;;
50367;SDS011;36281;34.132;-118.018;2023-04-15T12:06:38;14.32;;;8.02;;
50367;SDS011;36281;34.132;-118.018;2023-04-15T12:09:08;15.30;;;8.70;;
50367;SDS011;36281;34.132;-118.018;2023-04-15T12:11:41;15.40;;;7.97;;
50367;SDS011;36281;34.132;-118.018;2023-04-15T12:14:15;14.60;;;8.35;;
50367;SDS011;36281;34.132;-118.018;2023-04-15T12:16:48;13.60;;;8.98;;
50367;SDS011;36281;34.132;-118.018;2023-04-15T12:19:21;12.75;;;8.05;;
50367;SDS011;36281;34.132;-118.018;2023-04-15T12:21:52;12.13;;;8.07;;
50367;SDS011;36281;34.132;-118.018;2023-04-15T12:24:27;11.32;;;7.80;;
50367;SDS011;36281;34.132;-118.018;2023-04-15T12:27:02;16.15;;;8.10;;
50367;SDS011;36281;34.132;-118.018;2023-04-15T12:29:32;15.57;;;7.95;;
50367;SDS011;36281;34.132;-118.018;2023-04-15T12:32:04;12.45;;;8.23;;
50367;SDS011;36281;34.132;-118.018;2023-04-15T12:34:35;20.20;;;8.65;;
50367;SDS011;36281;34.132;-118.018;2023-04-15T12:37:04;13.85;;;8.43;;
50367;SDS011;36281;34.132;-118.018;2023-04-15T12:39:37;16.27;;;8.77;;
50367;SDS011;36281;34.132;-118.018;2023-04-15T12:42:08;15.32;;;8.20;;
50367;SDS011;36281;34.132;-118.018;2023-04-15T12:44:38;14.10;;;8.55;;
50367;SDS011;36281;34.132;-118.018;2023-04-15T12:47:07;11.68;;;8.57;;
50367;SDS011;36281;34.132;-118.018;2023-04-15T12:49:38;11.65;;;8.20;;
50367;SDS011;36281;34.132;-118.018;2023-04-15T12:52:07;14.68;;;9.25;;
50367;SDS011;36281;34.132;-118.018;2023-04-15T12:54:36;15.77;;;8.43;;
50367;SDS011;36281;34.132;-118.018;2023-04-15T12:57:08;9.57;;;8.20;;
50367;SDS011;36281;34.132;-118.018;2023-04-15T12:59:37;11.93;;;7.90;;
50367;SDS011;36281;34.132;-118.018;2023-04-15T13:02:06;15.82;;;8.95;;
50367;SDS011;36281;34.132;-118.018;2023-04-15T13:04:35;15.73;;;8.50;;
50367;SDS011;36281;34.132;-118.018;2023-04-15T13:07:04;10.95;;;8.10;;
50367;SDS011;36281;34.132;-118.018;2023-04-15T13:09:33;13.98;;;9.07;;
50367;SDS011;36281;34.132;-118.018;2023-04-15T13:12:03;15.10;;;8.23;;
50367;SDS011;36281;34.132;-118.018;2023-04-15T13:14:34;10.52;;;8.18;;
50367;SDS011;36281;34.132;-118.018;2023-04-15T13:17:03;16.05;;;9.13;;
50367;SDS011;36281;34.132;-118.018;2023-04-15T13:19:37;14.32;;;8.70;;
50367;SDS011;36281;34.132;-118.018;2023-04-15T13:22:06;14.73;;;8.63;;
50367;SDS011;36281;34.132;-118.018;2023-04-15T13:24:35;14.65;;;8.82;;
50367;SDS011;36281;34.132;-118.018;2023-04-15T13:27:05;14.23;;;8.38;;
50367;SDS011;36281;34.132;-118.018;2023-04-15T13:29:36;15.70;;;8.90;;
50367;SDS011;36281;34.132;-118.018;2023-04-15T13:32:06;15.88;;;9.15;;
50367;SDS011;36281;34.132;-118.018;2023-04-15T13:34:35;14.27;;;8.30;;
50367;SDS011;36281;34.132;-118.018;2023-04-15T13:37:08;15.60;;;8.48;;
50367;SDS011;36281;34.132;-118.018;2023-04-15T13:39:37;12.68;;;8.85;;
50367;SDS011;36281;34.132;-118.018;2023-04-15T13:42:06;18.55;;;9.05;;
50367;SDS011;36281;34.132;-118.018;2023-04-15T13:44:37;20.25;;;9.52;;
50367;SDS011;36281;34.132;-118.018;2023-04-15T13:47:06;18.35;;;8.95;;
50367;SDS011;36281;34.132;-118.018;2023-04-15T13:49:35;15.43;;;8.95;;
50367;SDS011;36281;34.132;-118.018;2023-04-15T13:52:04;13.90;;;8.98;;
50367;SDS011;36281;34.132;-118.018;2023-04-15T13:54:33;14.73;;;9.38;;
50367;SDS011;36281;34.132;-118.018;2023-04-15T13:57:03;20.20;;;10.30;;
50367;SDS011;36281;34.132;-118.018;2023-04-15T13:59:33;16.02;;;8.88;;
50367;SDS011;36281;34.132;-118.018;2023-04-15T14:02:04;16.88;;;8.50;;
50367;SDS011;36281;34.132;-118.018;2023-04-15T14:04:33;17.83;;;9.25;;
50367;SDS011;36281;34.132;-118.018;2023-04-15T14:07:02;15.35;;;8.93;;
50367;SDS011;36281;34.132;-118.018;2023-04-15T14:09:32;13.95;;;8.93;;
50367;SDS011;36281;34.132;-118.018;2023-04-15T14:12:02;16.55;;;9.05;;
50367;SDS011;36281;34.132;-118.018;2023-04-15T14:14:31;18.13;;;9.65;;
50367;SDS011;36281;34.132;-118.018;2023-04-15T14:17:01;15.88;;;9.30;;